createdAt,value
2018-02-16T00:02:01.162Z,100035.66
2018-02-16T00:04:28.667Z,100028.48
2018-02-16T00:06:56.167Z,100020.59
2018-02-16T00:09:23.693Z,100025.36
2018-02-16T00:11:52.779Z,100028.78
2018-02-16T00:14:20.342Z,100032.03
2018-02-16T00:16:47.841Z,100034.33
2018-02-16T00:19:15.315Z,100041.90
2018-02-16T00:21:42.773Z,100034.59
2018-02-16T00:24:10.247Z,100044.48
2018-02-16T00:26:37.701Z,100042.14
2018-02-16T00:29:05.168Z,100032.56
2018-02-16T00:31:32.662Z,100045.26
2018-02-16T00:34:00.127Z,100055.02
2018-02-16T00:36:27.599Z,100055.84
2018-02-16T00:38:55.071Z,100056.42
2018-02-16T00:41:22.535Z,100047.11
2018-02-16T00:43:49.999Z,100041.30
2018-02-16T00:46:17.473Z,100039.69
2018-02-16T00:48:44.927Z,100041.30
2018-02-16T00:51:12.388Z,100033.20
2018-02-16T00:53:39.842Z,100034.28
2018-02-16T00:56:07.505Z,100039.86
2018-02-16T00:58:34.962Z,100037.59
2018-02-16T01:01:02.439Z,100039.36
2018-02-16T01:03:29.907Z,100029.00
2018-02-16T01:05:57.364Z,100035.66
2018-02-16T01:08:24.815Z,100040.81
2018-02-16T01:10:52.317Z,100037.09
2018-02-16T01:13:19.772Z,100028.33
2018-02-16T01:15:47.222Z,100027.57
2018-02-16T01:18:14.720Z,100023.35
2018-02-16T01:20:42.176Z,100015.70
2018-02-16T01:23:09.653Z,100017.06
2018-02-16T01:25:37.109Z,100014.09
2018-02-16T01:28:04.572Z,100020.80
2018-02-16T01:30:32.046Z,100014.46
2018-02-16T01:32:59.519Z,100008.94
2018-02-16T01:35:27.138Z,100009.30
2018-02-16T01:37:54.609Z,100017.31
2018-02-16T01:40:22.065Z,100014.49
2018-02-16T01:42:49.546Z,100002.77
2018-02-16T01:45:17.056Z,100001.95
2018-02-16T01:47:44.530Z,99995.63
2018-02-16T01:50:11.992Z,99991.97
2018-02-16T01:52:39.434Z,99989.87
2018-02-16T01:55:07.056Z,99990.70
2018-02-16T01:57:34.533Z,99983.27
2018-02-16T02:00:02.055Z,99983.63
2018-02-16T02:02:29.518Z,99974.74
2018-02-16T02:04:56.976Z,99973.55
2018-02-16T02:07:24.453Z,99964.73
2018-02-16T02:09:51.911Z,99964.36
2018-02-16T02:12:19.369Z,99966.30
2018-02-16T02:14:46.978Z,99953.23
2018-02-16T02:17:14.460Z,99943.51
2018-02-16T02:19:41.902Z,99945.61
2018-02-16T02:22:09.569Z,99945.75
2018-02-16T02:24:38.860Z,99953.19
2018-02-16T02:27:06.333Z,99956.23
2018-02-16T02:29:33.790Z,99949.45
2018-02-16T02:32:01.240Z,99941.47
2018-02-16T02:34:28.692Z,99940.98
2018-02-16T02:36:56.152Z,99943.20
2018-02-16T02:39:23.604Z,99943.27
2018-02-16T02:41:51.055Z,99944.09
2018-02-16T02:44:18.584Z,99936.95
2018-02-16T02:46:46.299Z,99931.05
2018-02-16T02:49:13.742Z,99931.42
2018-02-16T02:51:41.200Z,99929.73
2018-02-16T02:54:08.658Z,99931.17
2018-02-16T02:56:36.121Z,99937.00
2018-02-16T02:59:03.588Z,99947.41
2018-02-16T03:01:31.051Z,99947.00
2018-02-16T03:03:58.510Z,99940.37
2018-02-16T03:06:32.792Z,99930.53
2018-02-16T03:09:00.295Z,99932.80
2018-02-16T03:11:27.763Z,99942.05
2018-02-16T03:13:55.218Z,99939.05
2018-02-16T03:16:22.681Z,99938.64
2018-02-16T03:18:50.155Z,99934.43
2018-02-16T03:21:17.684Z,99939.05
2018-02-16T03:23:45.135Z,99955.67
2018-02-16T03:26:12.597Z,99967.12
2018-02-16T03:28:40.050Z,99961.09
2018-02-16T03:31:07.495Z,99954.38
2018-02-16T03:33:34.957Z,99953.16
2018-02-16T03:36:02.426Z,99953.84
2018-02-16T03:38:29.887Z,99950.47
2018-02-16T03:40:57.350Z,99944.33
2018-02-16T03:43:24.894Z,99938.35
2018-02-16T03:48:26.141Z,99939.97
2018-02-16T03:50:53.665Z,99942.80
2018-02-16T03:53:21.124Z,99937.66
2018-02-16T03:55:48.580Z,99929.38
2018-02-16T03:58:16.049Z,99932.56
2018-02-16T04:00:43.502Z,99952.00
2018-02-16T04:03:11.010Z,99960.38
2018-02-16T04:05:38.470Z,99961.35
2018-02-16T04:08:05.922Z,99956.91
2018-02-16T04:10:33.388Z,99950.83
2018-02-16T04:13:00.918Z,99956.59
2018-02-16T04:15:28.366Z,99950.27
2018-02-16T04:17:55.836Z,99959.05
2018-02-16T04:20:23.299Z,99950.67
2018-02-16T04:22:50.748Z,99956.56
2018-02-16T04:25:18.205Z,99965.45
2018-02-16T04:27:45.660Z,99967.62
2018-02-16T04:30:13.154Z,99955.69
2018-02-16T04:32:40.627Z,99948.84
2018-02-16T04:35:08.107Z,99946.22
2018-02-16T04:37:36.188Z,99943.34
2018-02-16T04:40:03.630Z,99949.25
2018-02-16T04:42:31.090Z,99963.12
2018-02-16T04:44:58.559Z,99959.28
2018-02-16T04:47:26.013Z,99953.94
2018-02-16T04:49:58.328Z,99946.56
2018-02-16T04:52:25.884Z,99950.20
2018-02-16T04:54:53.366Z,99957.34
2018-02-16T04:57:20.844Z,99965.82
2018-02-16T04:59:48.330Z,99963.65
2018-02-16T05:02:15.819Z,99952.69
2018-02-16T05:04:44.278Z,99957.69
2018-02-16T05:07:11.778Z,99955.55
2018-02-16T05:09:39.436Z,99959.64
2018-02-16T05:12:06.904Z,99958.73
2018-02-16T05:14:34.414Z,99961.77
2018-02-16T05:17:01.864Z,99958.38
2018-02-16T05:19:29.344Z,99954.09
2018-02-16T05:21:56.799Z,99962.19
2018-02-16T05:24:24.327Z,99974.23
2018-02-16T05:26:51.823Z,99975.93
2018-02-16T05:29:19.278Z,99980.12
2018-02-16T05:31:46.758Z,99981.66
2018-02-16T05:34:14.268Z,99998.41
2018-02-16T05:36:41.723Z,99998.35
2018-02-16T05:39:09.182Z,100003.13
2018-02-16T05:41:36.688Z,100004.81
2018-02-16T05:44:04.187Z,100000.68
2018-02-16T05:46:31.665Z,99992.37
2018-02-16T05:48:59.156Z,99992.29
2018-02-16T05:51:26.609Z,99992.34
2018-02-16T05:53:54.093Z,99999.36
2018-02-16T05:56:21.564Z,100006.95
2018-02-16T05:58:49.030Z,100022.10
2018-02-16T06:01:16.931Z,100026.72
2018-02-16T06:03:45.000Z,100024.09
2018-02-16T06:06:15.469Z,100033.63
2018-02-16T06:08:43.943Z,100037.78
2018-02-16T06:13:47.624Z,100050.83
2018-02-16T06:16:15.815Z,100056.56
2018-02-16T06:18:49.450Z,100063.72
2018-02-16T06:21:17.162Z,100077.66
2018-02-16T06:23:44.654Z,100088.46
2018-02-16T06:26:12.167Z,100100.53
2018-02-16T06:28:39.779Z,100109.03
2018-02-16T06:31:07.275Z,100111.47
2018-02-16T06:33:34.726Z,100123.00
2018-02-16T06:36:02.183Z,100126.41
2018-02-16T06:38:29.665Z,100121.42
2018-02-16T06:40:57.168Z,100121.27
2018-02-16T06:43:24.637Z,100131.80
2018-02-16T06:45:52.136Z,100136.39
2018-02-16T06:48:19.598Z,100140.78
2018-02-16T06:50:47.919Z,100141.06
2018-02-16T06:53:15.403Z,100133.55
2018-02-16T06:55:42.863Z,100143.70
2018-02-16T06:58:10.344Z,100150.41
2018-02-16T07:00:37.807Z,100145.20
2018-02-16T07:03:05.293Z,100155.69
2018-02-16T07:05:32.777Z,100161.66
2018-02-16T07:08:00.258Z,100168.59
2018-02-16T07:10:27.739Z,100177.15
2018-02-16T07:12:55.249Z,100189.34
2018-02-16T07:15:22.713Z,100202.87
2018-02-16T07:17:50.198Z,100213.75
2018-02-16T07:20:17.675Z,100213.84
2018-02-16T07:22:45.154Z,100216.94
2018-02-16T07:25:12.679Z,100210.20
2018-02-16T07:27:40.147Z,100215.19
2018-02-16T07:30:07.640Z,100224.61
2018-02-16T07:32:35.110Z,100227.19
2018-02-16T07:35:02.558Z,100223.37
2018-02-16T07:37:30.031Z,100217.44
2018-02-16T07:39:57.475Z,100227.69
2018-02-16T07:42:25.110Z,100239.83
2018-02-16T07:44:52.612Z,100248.09
2018-02-16T07:47:20.092Z,100242.27
2018-02-16T07:49:47.542Z,100245.31
2018-02-16T07:52:15.007Z,100252.14
2018-02-16T07:54:42.619Z,100252.28
2018-02-16T07:57:10.127Z,100257.53
2018-02-16T07:59:37.585Z,100270.55
2018-02-16T08:02:05.055Z,100268.83
2018-02-16T08:04:32.552Z,100257.73
2018-02-16T08:07:00.011Z,100254.89
2018-02-16T08:09:27.467Z,100260.33
2018-02-16T08:11:54.959Z,100264.63
2018-02-16T08:14:22.455Z,100268.27
2018-02-16T08:16:49.939Z,100262.12
2018-02-16T08:19:17.422Z,100260.83
2018-02-16T08:21:44.909Z,100262.63
2018-02-16T08:24:12.488Z,100267.63
2018-02-16T08:26:40.000Z,100266.56
2018-02-16T08:29:07.469Z,100265.84
2018-02-16T08:31:34.971Z,100276.28
2018-02-16T08:34:02.475Z,100277.76
2018-02-16T08:36:29.959Z,100281.20
2018-02-16T08:38:57.494Z,100289.52
2018-02-16T08:41:24.963Z,100295.63
2018-02-16T08:43:52.466Z,100300.73
2018-02-16T08:46:19.956Z,100296.72
2018-02-16T08:48:47.411Z,100293.52
2018-02-16T08:51:14.914Z,100291.98
2018-02-16T08:53:42.378Z,100290.80
2018-02-16T08:56:09.902Z,100301.56
2018-02-16T08:58:37.350Z,100307.23
2018-02-16T09:01:04.812Z,100311.52
2018-02-16T09:03:33.009Z,100310.30
2018-02-16T09:06:00.492Z,100317.02
2018-02-16T09:08:27.959Z,100318.73
2018-02-16T09:10:55.450Z,100317.22
2018-02-16T09:13:22.944Z,100319.61
2018-02-16T09:15:50.407Z,100324.41
2018-02-16T09:18:17.895Z,100314.50
2018-02-16T09:20:45.376Z,100315.88
2018-02-16T09:23:12.884Z,100316.02
2018-02-16T09:25:40.344Z,100313.03
2018-02-16T09:28:07.831Z,100316.82
2018-02-16T09:30:35.293Z,100326.66
2018-02-16T09:33:02.760Z,100327.48
2018-02-16T09:35:30.603Z,100333.31
2018-02-16T09:37:58.073Z,100328.25
2018-02-16T09:40:25.763Z,100331.83
2018-02-16T09:42:53.263Z,100343.72
2018-02-16T09:45:20.751Z,100342.87
2018-02-16T09:47:48.249Z,100349.06
2018-02-16T09:50:15.759Z,100359.80
2018-02-16T09:52:43.243Z,100356.03
2018-02-16T09:55:10.703Z,100350.85
2018-02-16T09:57:38.224Z,100353.36
2018-02-16T10:00:05.696Z,100354.32
2018-02-16T10:02:33.180Z,100350.59
2018-02-16T10:05:00.687Z,100354.88
2018-02-16T10:07:28.181Z,100359.52
2018-02-16T10:09:55.637Z,100368.12
2018-02-16T10:12:23.211Z,100366.30
2018-02-16T10:14:51.570Z,100368.20
2018-02-16T10:17:19.060Z,100369.11
2018-02-16T10:19:46.588Z,100376.48
2018-02-16T10:24:47.824Z,100383.23
2018-02-16T10:27:15.386Z,100380.83
2018-02-16T10:29:42.900Z,100373.50
2018-02-16T10:32:10.394Z,100391.70
2018-02-16T10:34:41.676Z,100403.66
2018-02-16T10:37:09.175Z,100408.65
2018-02-16T10:39:36.646Z,100409.91
2018-02-16T10:42:04.139Z,100416.73
2018-02-16T10:44:31.604Z,100408.29
2018-02-16T10:46:59.076Z,100425.20
2018-02-16T10:49:26.576Z,100423.36
2018-02-16T10:51:54.079Z,100425.98
2018-02-16T10:54:21.568Z,100412.77
2018-02-16T10:56:49.124Z,100424.75
2018-02-16T10:59:16.641Z,100423.77
2018-02-16T11:01:44.129Z,100417.48
2018-02-16T11:04:17.331Z,100420.86
2018-02-16T11:06:48.807Z,100420.22
2018-02-16T11:09:21.274Z,100424.70
2018-02-16T11:11:48.740Z,100429.01
2018-02-16T11:14:16.228Z,100422.46
2018-02-16T11:16:43.711Z,100427.93
2018-02-16T11:19:11.198Z,100422.28
2018-02-16T11:21:38.654Z,100425.14
2018-02-16T11:24:06.145Z,100427.07
2018-02-16T11:26:33.643Z,100428.32
2018-02-16T11:29:01.107Z,100422.31
2018-02-16T11:31:28.584Z,100433.84
2018-02-16T11:33:56.148Z,100441.98
2018-02-16T11:36:23.644Z,100432.75
2018-02-16T11:38:51.193Z,100434.95
2018-02-16T11:41:18.667Z,100430.14
2018-02-16T11:43:46.183Z,100421.77
2018-02-16T11:46:13.646Z,100422.41
2018-02-16T11:48:44.093Z,100418.19
2018-02-16T11:51:11.588Z,100419.55
2018-02-16T11:53:39.043Z,100416.25
2018-02-16T11:56:06.531Z,100427.55
2018-02-16T11:58:34.037Z,100425.89
2018-02-16T12:01:01.518Z,100428.80
2018-02-16T12:03:29.009Z,100430.62
2018-02-16T12:05:56.500Z,100430.06
2018-02-16T12:08:23.988Z,100434.56
2018-02-16T12:10:51.499Z,100434.56
2018-02-16T12:13:18.963Z,100431.24
2018-02-16T12:15:46.485Z,100440.14
2018-02-16T12:18:13.979Z,100449.02
2018-02-16T12:20:41.456Z,100453.41
2018-02-16T12:23:08.981Z,100456.36
2018-02-16T12:25:36.472Z,100454.33
2018-02-16T12:28:03.980Z,100453.92
2018-02-16T12:30:31.489Z,100450.95
2018-02-16T12:32:58.964Z,100455.58
2018-02-16T12:35:26.451Z,100450.28
2018-02-16T12:37:53.970Z,100441.48
2018-02-16T12:40:21.469Z,100435.02
2018-02-16T12:42:48.962Z,100440.60
2018-02-16T12:45:16.443Z,100436.06
2018-02-16T12:47:43.959Z,100435.65
2018-02-16T12:50:11.424Z,100441.75
2018-02-16T12:52:39.059Z,100439.11
2018-02-16T12:55:06.569Z,100434.16
2018-02-16T12:57:34.058Z,100432.45
2018-02-16T13:00:01.579Z,100431.53
2018-02-16T13:02:29.067Z,100431.52
2018-02-16T13:04:56.562Z,100427.47
2018-02-16T13:07:24.055Z,100423.64
2018-02-16T13:09:51.576Z,100425.45
2018-02-16T13:12:19.036Z,100432.55
2018-02-16T13:14:46.513Z,100433.05
2018-02-16T13:17:14.024Z,100447.52
2018-02-16T13:19:41.512Z,100447.79
2018-02-16T13:22:09.038Z,100457.92
2018-02-16T13:24:36.548Z,100455.06
2018-02-16T13:27:04.006Z,100460.75
2018-02-16T13:29:31.470Z,100462.09
2018-02-16T13:31:58.985Z,100461.11
2018-02-16T13:34:26.490Z,100465.70
2018-02-16T13:36:53.951Z,100470.93
2018-02-16T13:39:21.430Z,100473.64
2018-02-16T13:41:48.908Z,100477.87
2018-02-16T13:44:16.395Z,100482.11
2018-02-16T13:46:43.892Z,100476.08
2018-02-16T13:49:11.382Z,100477.66
2018-02-16T13:51:38.887Z,100486.00
2018-02-16T13:54:11.804Z,100479.73
2018-02-16T13:56:39.262Z,100477.07
2018-02-16T13:59:06.778Z,100485.23
2018-02-16T14:01:34.303Z,100479.62
2018-02-16T14:04:01.776Z,100482.72
2018-02-16T14:06:30.547Z,100483.86
2018-02-16T14:08:58.090Z,100481.77
2018-02-16T14:11:25.589Z,100483.04
2018-02-16T14:13:53.128Z,100481.23
2018-02-16T14:16:20.721Z,100475.59
2018-02-16T14:18:48.213Z,100481.20
2018-02-16T14:21:16.211Z,100487.22
2018-02-16T14:23:43.676Z,100477.59
2018-02-16T14:26:11.171Z,100484.45
2018-02-16T14:28:39.429Z,100483.51
2018-02-16T14:31:06.926Z,100489.94
2018-02-16T14:33:34.410Z,100494.31
2018-02-16T14:36:01.917Z,100493.29
2018-02-16T14:38:29.389Z,100490.81
2018-02-16T14:40:56.855Z,100490.42
2018-02-16T14:43:24.359Z,100491.13
2018-02-16T14:45:51.842Z,100485.52
2018-02-16T14:48:19.309Z,100491.46
2018-02-16T14:50:47.930Z,100501.64
2018-02-16T14:53:15.415Z,100489.50
2018-02-16T14:55:42.909Z,100489.50
2018-02-16T14:58:10.724Z,100483.92
2018-02-16T15:00:38.329Z,100489.64
2018-02-16T15:03:05.864Z,100492.30
2018-02-16T15:05:33.341Z,100487.12
2018-02-16T15:08:00.816Z,100483.78
2018-02-16T15:10:28.300Z,100487.49
2018-02-16T15:12:55.755Z,100496.41
2018-02-16T15:15:23.229Z,100497.45
2018-02-16T15:17:50.722Z,100504.30
2018-02-16T15:20:18.176Z,100499.23
2018-02-16T15:22:45.671Z,100500.05
2018-02-16T15:25:13.194Z,100496.34
2018-02-16T15:27:40.651Z,100498.52
2018-02-16T15:30:08.132Z,100501.04
2018-02-16T15:32:35.600Z,100504.04
2018-02-16T15:35:03.084Z,100507.05
2018-02-16T15:37:30.567Z,100502.25
2018-02-16T15:39:58.040Z,100519.53
2018-02-16T15:42:25.652Z,100531.14
2018-02-16T15:44:53.192Z,100519.50
2018-02-16T15:47:20.679Z,100529.89
2018-02-16T15:49:48.153Z,100527.42
2018-02-16T15:52:15.651Z,100535.46
2018-02-16T15:54:43.134Z,100535.85
2018-02-16T15:57:10.617Z,100535.80
2018-02-16T15:59:38.093Z,100540.61
2018-02-16T16:02:05.557Z,100543.95
2018-02-16T16:04:33.051Z,100540.61
2018-02-16T16:07:00.542Z,100539.19
2018-02-16T16:09:28.042Z,100545.09
2018-02-16T16:11:55.520Z,100548.28
2018-02-16T16:14:22.977Z,100544.59
2018-02-16T16:16:50.639Z,100546.57
2018-02-16T16:19:18.200Z,100551.94
2018-02-16T16:21:45.684Z,100550.76
2018-02-16T16:24:13.152Z,100550.02
2018-02-16T16:26:40.626Z,100548.26
2018-02-16T16:29:08.102Z,100554.11
2018-02-16T16:31:35.594Z,100557.84
2018-02-16T16:34:03.087Z,100567.47
2018-02-16T16:36:30.555Z,100571.75
2018-02-16T16:38:58.029Z,100575.17
2018-02-16T16:41:25.515Z,100579.09
2018-02-16T16:43:52.992Z,100584.40
2018-02-16T16:46:20.471Z,100596.04
2018-02-16T16:48:47.942Z,100596.20
2018-02-16T16:51:15.574Z,100602.34
2018-02-16T16:53:43.054Z,100600.35
2018-02-16T16:56:10.536Z,100609.50
2018-02-16T16:58:38.028Z,100612.06
2018-02-16T17:01:05.520Z,100611.11
2018-02-16T17:03:32.991Z,100614.99
2018-02-16T17:06:00.475Z,100605.92
2018-02-16T17:08:28.005Z,100606.61
2018-02-16T17:10:55.472Z,100616.80
2018-02-16T17:13:23.069Z,100619.67
2018-02-16T17:15:50.536Z,100620.76
2018-02-16T17:18:18.028Z,100625.91
2018-02-16T17:20:45.557Z,100632.98
2018-02-16T17:23:13.066Z,100637.68
2018-02-16T17:25:40.547Z,100639.91
2018-02-16T17:28:08.075Z,100644.73
2018-02-16T17:30:35.560Z,100650.59
2018-02-16T17:33:03.084Z,100656.86
2018-02-16T17:35:30.583Z,100651.91
2018-02-16T17:37:58.115Z,100657.59
2018-02-16T17:40:25.655Z,100663.22
2018-02-16T17:42:53.152Z,100662.16
2018-02-16T17:45:20.700Z,100662.40
2018-02-16T17:47:48.208Z,100659.34
2018-02-16T17:50:15.708Z,100654.16
2018-02-16T17:52:43.204Z,100656.68
2018-02-16T17:55:10.717Z,100654.22
2018-02-16T17:57:38.195Z,100657.14
2018-02-16T18:00:05.699Z,100659.80
2018-02-16T18:02:33.192Z,100656.23
2018-02-16T18:05:00.685Z,100656.67
2018-02-16T18:07:28.191Z,100664.16
2018-02-16T18:09:55.717Z,100671.06
2018-02-16T18:12:23.285Z,100684.09
2018-02-16T18:14:51.819Z,100683.27
2018-02-16T18:17:19.303Z,100679.72
2018-02-16T18:19:46.824Z,100681.57
2018-02-16T18:22:14.344Z,100679.41
2018-02-16T18:24:41.843Z,100685.15
2018-02-16T18:27:09.333Z,100690.09
2018-02-16T18:29:36.843Z,100684.86
2018-02-16T18:32:04.316Z,100682.23
2018-02-16T18:34:31.862Z,100679.66
2018-02-16T18:36:59.362Z,100685.44
2018-02-16T18:39:26.884Z,100678.40
2018-02-16T18:41:54.366Z,100673.59
2018-02-16T18:44:21.896Z,100669.95
2018-02-16T18:46:49.404Z,100672.22
2018-02-16T18:49:16.907Z,100677.20
2018-02-16T18:51:44.401Z,100681.22
2018-02-16T18:54:11.892Z,100672.88
2018-02-16T18:56:39.477Z,100672.80
2018-02-16T18:59:06.980Z,100669.20
2018-02-16T19:01:34.441Z,100672.53
2018-02-16T19:04:01.933Z,100668.56
2018-02-16T19:06:29.431Z,100666.20
2018-02-16T19:08:56.924Z,100671.11
2018-02-16T19:11:24.411Z,100679.48
2018-02-16T19:13:51.905Z,100679.48
2018-02-16T19:16:19.424Z,100687.00
2018-02-16T19:18:46.908Z,100689.09
2018-02-16T19:21:14.655Z,100694.72
2018-02-16T19:23:42.155Z,100696.81
2018-02-16T19:26:09.636Z,100696.38
2018-02-16T19:28:37.150Z,100700.17
2018-02-16T19:31:04.756Z,100707.36
2018-02-16T19:33:32.235Z,100706.89
2018-02-16T19:35:59.961Z,100710.78
2018-02-16T19:38:27.467Z,100717.21
2018-02-16T19:40:54.943Z,100714.50
2018-02-16T19:43:22.460Z,100707.28
2018-02-16T19:45:49.935Z,100711.47
2018-02-16T19:48:17.432Z,100707.53
2018-02-16T19:50:44.933Z,100714.25
2018-02-16T19:53:12.410Z,100712.98
2018-02-16T19:55:40.202Z,100705.48
2018-02-16T19:58:07.720Z,100713.45
2018-02-16T20:00:35.204Z,100711.33
2018-02-16T20:03:02.740Z,100712.41
2018-02-16T20:05:30.232Z,100711.50
2018-02-16T20:07:58.147Z,100720.75
2018-02-16T20:10:25.753Z,100719.91
2018-02-16T20:12:53.521Z,100712.88
2018-02-16T20:15:22.640Z,100711.59
2018-02-16T20:17:51.063Z,100704.16
2018-02-16T20:20:18.827Z,100713.20
2018-02-16T20:22:46.624Z,100709.80
2018-02-16T20:25:14.153Z,100716.29
2018-02-16T20:27:41.994Z,100711.59
2018-02-16T20:30:09.775Z,100706.66
2018-02-16T20:32:37.320Z,100709.80
2018-02-16T20:35:05.029Z,100707.99
2018-02-16T20:37:32.759Z,100713.88
2018-02-16T20:40:00.601Z,100724.97
2018-02-16T20:42:28.537Z,100719.95
2018-02-16T20:44:56.300Z,100723.16
2018-02-16T20:47:23.770Z,100726.38
2018-02-16T20:49:51.339Z,100725.58
2018-02-16T20:52:18.864Z,100729.98
2018-02-16T20:54:46.410Z,100732.59
2018-02-16T20:57:13.927Z,100721.97
2018-02-16T20:59:41.396Z,100720.81
2018-02-16T21:02:08.911Z,100706.95
2018-02-16T21:04:36.593Z,100716.05
2018-02-16T21:07:04.173Z,100737.10
2018-02-16T21:09:31.681Z,100745.01
2018-02-16T21:11:59.168Z,100735.73
2018-02-16T21:14:26.722Z,100732.30
2018-02-16T21:16:54.349Z,100727.24
2018-02-16T21:19:21.857Z,100730.20
2018-02-16T21:21:49.385Z,100727.42
2018-02-16T21:24:16.878Z,100726.48
2018-02-16T21:26:44.372Z,100711.31
2018-02-16T21:29:11.893Z,100717.53
2018-02-16T21:31:39.389Z,100734.89
2018-02-16T21:34:07.024Z,100740.56
2018-02-16T21:36:34.574Z,100740.34
2018-02-16T21:39:02.084Z,100745.63
2018-02-16T21:41:29.583Z,100741.94
2018-02-16T21:43:57.161Z,100736.45
2018-02-16T21:46:24.664Z,100746.56
2018-02-16T21:48:52.156Z,100745.12
2018-02-16T21:51:19.635Z,100745.30
2018-02-16T21:53:47.124Z,100744.00
2018-02-16T21:56:14.666Z,100740.09
2018-02-16T21:58:45.353Z,100736.59
2018-02-16T22:01:12.879Z,100734.36
2018-02-16T22:03:40.411Z,100734.71
2018-02-16T22:06:07.871Z,100738.55
2018-02-16T22:08:35.341Z,100738.77
2018-02-16T22:11:02.808Z,100739.59
2018-02-16T22:13:30.372Z,100745.80
2018-02-16T22:15:57.860Z,100744.47
2018-02-16T22:18:28.420Z,100736.56
2018-02-16T22:20:55.975Z,100740.24
2018-02-16T22:23:23.469Z,100738.80
2018-02-16T22:25:51.012Z,100739.09
2018-02-16T22:28:18.529Z,100736.99
2018-02-16T22:30:47.578Z,100736.95
2018-02-16T22:33:15.241Z,100726.45
2018-02-16T22:35:42.755Z,100719.55
2018-02-16T22:38:10.265Z,100719.08
2018-02-16T22:40:37.930Z,100715.30
2018-02-16T22:43:05.394Z,100718.69
2018-02-16T22:45:32.904Z,100719.09
2018-02-16T22:48:00.563Z,100714.03
2018-02-16T22:50:28.037Z,100717.86
2018-02-16T22:52:55.507Z,100717.49
2018-02-16T22:55:22.958Z,100720.56
2018-02-16T22:57:50.614Z,100719.98
2018-02-16T23:00:18.305Z,100715.47
2018-02-16T23:02:45.793Z,100713.81
2018-02-16T23:05:13.370Z,100719.09
2018-02-16T23:07:40.876Z,100720.08
2018-02-16T23:10:08.331Z,100717.88
2018-02-16T23:12:35.810Z,100716.44
2018-02-16T23:15:03.268Z,100720.23
2018-02-16T23:17:30.789Z,100717.77
2018-02-16T23:19:58.292Z,100721.70
2018-02-16T23:22:25.771Z,100717.45
2018-02-16T23:24:53.247Z,100709.06
2018-02-16T23:27:20.710Z,100714.19
2018-02-16T23:29:48.186Z,100704.02
2018-02-16T23:32:15.679Z,100694.57
2018-02-16T23:34:43.164Z,100695.30
2018-02-16T23:37:10.659Z,100688.58
2018-02-16T23:39:38.166Z,100692.27
2018-02-16T23:42:05.639Z,100689.34
2018-02-16T23:44:33.045Z,100691.84
2018-02-16T23:47:00.528Z,100688.44
2018-02-16T23:49:28.003Z,100687.78
2018-02-16T23:51:55.537Z,100691.94
2018-02-16T23:54:23.084Z,100687.28
2018-02-16T23:56:51.385Z,100683.12
2018-02-16T23:59:18.834Z,100685.72
